Time;durP1;ratioP1;P1;durP2;ratioP2;P2;SDS_P1;SDS_P2;PMS_P1;PMS_P2;Temp;Humidity;BMP_temperature;BMP_pressure;BME280_temperature;BME280_humidity;BME280_pressure;Samples;Min_cycle;Max_cycle;Signal;HPM_P1;HPM_P2
2020/12/20 00:02:17;;;;;;;7.93;4.40;;;8.00;99.90;;;;;;4977974;28;20380;-71
2020/12/20 00:04:45;;;;;;;9.68;4.55;;;7.90;99.90;;;;;;4978284;28;20439;-71
2020/12/20 00:07:13;;;;;;;7.50;3.92;;;7.90;99.90;;;;;;4977953;28;20037;-71
2020/12/20 00:09:41;;;;;;;9.98;4.53;;;7.80;99.90;;;;;;4978495;28;20025;-71
2020/12/20 00:12:09;;;;;;;11.38;5.40;;;7.70;99.90;;;;;;4977903;28;20019;-71
2020/12/20 00:14:40;;;;;;;13.27;5.40;;;7.70;99.90;;;;;;4978127;28;20323;-71
2020/12/20 00:17:11;;;;;;;14.30;6.18;;;7.60;99.90;;;;;;4977807;28;20019;-71
2020/12/20 00:19:39;;;;;;;11.10;4.68;;;7.50;99.90;;;;;;4977885;28;20015;-71
2020/12/20 00:22:09;;;;;;;7.55;4.47;;;7.50;99.90;;;;;;4977615;28;20366;-71
2020/12/20 00:24:43;;;;;;;8.65;4.65;;;7.50;99.90;;;;;;4977077;28;20110;-71
2020/12/20 00:27:10;;;;;;;8.07;4.75;;;7.50;99.90;;;;;;4977992;28;20317;-71
2020/12/20 00:29:39;;;;;;;5.80;3.60;;;7.50;99.90;;;;;;4978017;28;20019;-71
2020/12/20 00:32:13;;;;;;;7.75;4.38;;;7.60;99.90;;;;;;4977622;28;20019;-71
2020/12/20 00:34:41;;;;;;;8.07;4.70;;;7.60;99.90;;;;;;4992952;28;20023;-71
2020/12/20 00:37:09;;;;;;;8.55;4.35;;;7.60;99.90;;;;;;4976653;28;20026;-71
2020/12/20 00:39:36;;;;;;;5.82;4.18;;;7.60;99.90;;;;;;4992738;28;20054;-71
2020/12/20 00:42:06;;;;;;;8.25;4.63;;;7.60;99.90;;;;;;4977486;28;20034;-71
2020/12/20 00:44:35;;;;;;;7.60;4.30;;;7.70;99.90;;;;;;4977779;28;20109;-71
2020/12/20 00:47:04;;;;;;;7.25;4.22;;;7.70;99.90;;;;;;4977537;28;20078;-71
2020/12/20 00:49:33;;;;;;;8.93;4.63;;;7.60;99.90;;;;;;4992658;28;20027;-71
2020/12/20 00:52:03;;;;;;;7.07;3.92;;;7.60;99.90;;;;;;4977447;28;20030;-71
2020/12/20 00:54:31;;;;;;;7.78;4.55;;;7.60;99.90;;;;;;4992793;28;20080;-71
2020/12/20 00:56:59;;;;;;;6.65;3.72;;;7.60;99.90;;;;;;4977760;28;20046;-71
2020/12/20 00:59:26;;;;;;;9.48;4.45;;;7.60;99.90;;;;;;4977749;28;20019;-71
2020/12/20 01:01:57;;;;;;;9.07;4.63;;;7.60;99.90;;;;;;4977448;28;20304;-71
2020/12/20 01:04:24;;;;;;;6.95;4.40;;;7.60;99.90;;;;;;4977527;28;20054;-71
2020/12/20 01:06:58;;;;;;;7.35;4.82;;;7.60;99.90;;;;;;4977941;28;20023;-71
2020/12/20 01:09:27;;;;;;;11.35;5.55;;;7.60;99.90;;;;;;4977279;28;20027;-71
2020/12/20 01:11:59;;;;;;;9.85;4.82;;;7.60;99.90;;;;;;4977556;28;20104;-71
2020/12/20 01:14:26;;;;;;;7.50;4.78;;;7.50;99.90;;;;;;4977531;28;20026;-71
2020/12/20 01:16:54;;;;;;;9.52;4.70;;;7.50;99.90;;;;;;4976315;28;20428;-71
2020/12/20 01:19:21;;;;;;;8.80;4.93;;;7.50;99.90;;;;;;4977203;28;20030;-71
2020/12/20 01:21:49;;;;;;;7.97;4.28;;;7.50;99.90;;;;;;4977394;28;20019;-71
2020/12/20 01:24:16;;;;;;;8.13;4.82;;;7.40;99.90;;;;;;4977649;28;20110;-71
2020/12/20 01:26:44;;;;;;;8.35;4.80;;;7.30;99.90;;;;;;4992349;28;20090;-71
2020/12/20 01:29:11;;;;;;;7.55;4.53;;;7.20;99.90;;;;;;4977638;28;20396;-71
2020/12/20 01:31:38;;;;;;;8.20;4.78;;;7.20;99.90;;;;;;4977147;28;20027;-71
2020/12/20 01:34:06;;;;;;;8.77;4.88;;;7.10;99.90;;;;;;4977085;28;20031;-71
2020/12/20 01:36:33;;;;;;;9.25;4.78;;;7.10;99.90;;;;;;4979603;28;20071;-71
2020/12/20 01:39:01;;;;;;;11.30;5.72;;;7.10;99.90;;;;;;4980597;28;20030;-71
2020/12/20 01:41:30;;;;;;;8.00;4.72;;;7.00;99.90;;;;;;4980831;28;20039;-71
2020/12/20 01:43:57;;;;;;;9.18;4.50;;;7.00;99.90;;;;;;4980336;28;20030;-71
2020/12/20 01:46:25;;;;;;;8.20;4.43;;;7.00;99.90;;;;;;4980601;28;20102;-71
2020/12/20 01:48:53;;;;;;;7.90;4.40;;;6.90;99.90;;;;;;4980414;28;20102;-71
2020/12/20 01:51:21;;;;;;;8.40;4.80;;;6.80;99.90;;;;;;4980645;28;20038;-71
2020/12/20 01:53:50;;;;;;;7.10;4.38;;;6.80;99.90;;;;;;4980288;28;20038;-71
2020/12/20 01:56:19;;;;;;;7.72;4.43;;;6.70;99.90;;;;;;4980267;28;20030;-71
2020/12/20 01:58:47;;;;;;;8.23;4.50;;;6.70;99.90;;;;;;4980192;28;20027;-71
2020/12/20 02:01:14;;;;;;;8.18;4.65;;;6.60;99.90;;;;;;4979775;28;20323;-71
2020/12/20 02:03:44;;;;;;;10.25;5.38;;;6.50;99.90;;;;;;4979190;28;20026;-71
2020/12/20 02:06:15;;;;;;;11.80;5.35;;;6.50;99.90;;;;;;4979875;28;20435;-71
2020/12/20 02:08:42;;;;;;;9.90;5.07;;;6.50;99.90;;;;;;4980069;28;20019;-71
2020/12/20 02:11:16;;;;;;;7.50;4.68;;;6.40;99.90;;;;;;4980181;28;20414;-71
2020/12/20 02:13:52;;;;;;;8.50;4.60;;;6.30;99.90;;;;;;4979954;28;20033;-71
2020/12/20 02:16:20;;;;;;;;;;;6.30;99.90;;;;;;4980630;28;20026;-71
2020/12/20 02:18:48;;;;;;;9.95;5.10;;;6.20;99.90;;;;;;4980141;28;20318;-71
2020/12/20 02:21:17;;;;;;;8.20;4.97;;;6.10;99.90;;;;;;4980551;28;20051;-71
2020/12/20 02:23:50;;;;;;;10.38;4.80;;;6.00;99.90;;;;;;4980025;28;20027;-71
2020/12/20 02:26:20;;;;;;;11.27;5.78;;;6.00;99.90;;;;;;4979783;28;20022;-71
2020/12/20 02:28:51;;;;;;;7.75;4.45;;;6.00;99.90;;;;;;4979950;28;20025;-71
2020/12/20 02:31:20;;;;;;;10.23;5.38;;;5.90;99.90;;;;;;4979827;28;20062;-69
2020/12/20 02:33:47;;;;;;;9.50;5.43;;;5.90;99.90;;;;;;4979908;28;20054;-69
2020/12/20 02:36:15;;;;;;;8.27;5.18;;;5.90;99.90;;;;;;4979596;28;20023;-69
2020/12/20 02:38:43;;;;;;;9.25;5.38;;;5.80;99.90;;;;;;4979108;28;20026;-70
2020/12/20 02:41:10;;;;;;;9.18;5.97;;;5.80;99.90;;;;;;4979602;28;20027;-71
2020/12/20 02:43:38;;;;;;;10.23;5.40;;;5.80;99.90;;;;;;4979345;28;20155;-71
2020/12/20 02:46:06;;;;;;;11.98;6.65;;;5.80;99.90;;;;;;4978359;28;20497;-71
2020/12/20 02:48:33;;;;;;;9.88;5.43;;;5.80;99.90;;;;;;4978899;28;20023;-71
2020/12/20 02:51:00;;;;;;;11.25;6.22;;;5.80;99.90;;;;;;4979464;28;20027;-71
2020/12/20 02:53:28;;;;;;;9.48;5.82;;;5.90;99.90;;;;;;4978163;28;20416;-71
2020/12/20 02:55:56;;;;;;;10.95;6.13;;;5.90;99.90;;;;;;4979594;28;20074;-71
2020/12/20 02:58:23;;;;;;;9.88;6.05;;;5.90;99.90;;;;;;4979122;28;20026;-71
2020/12/20 03:00:51;;;;;;;10.27;5.35;;;5.90;99.90;;;;;;4994418;28;20034;-71
2020/12/20 03:03:18;;;;;;;9.48;5.60;;;6.00;99.90;;;;;;4994101;28;20034;-72
2020/12/20 03:05:46;;;;;;;9.35;5.03;;;6.00;99.90;;;;;;4978802;28;20094;-71
2020/12/20 03:08:13;;;;;;;9.90;5.45;;;6.00;99.90;;;;;;4979746;28;20030;-69
2020/12/20 03:10:40;;;;;;;11.35;6.18;;;6.00;99.90;;;;;;4994063;28;20436;-69
2020/12/20 03:13:08;;;;;;;10.20;5.82;;;6.00;99.90;;;;;;4978847;28;20085;-69
2020/12/20 03:15:38;;;;;;;12.32;6.07;;;6.00;99.90;;;;;;4978897;28;20026;-69
2020/12/20 03:18:05;;;;;;;10.20;5.60;;;6.00;99.90;;;;;;4978695;28;20375;-69
2020/12/20 03:20:33;;;;;;;8.35;5.20;;;6.00;99.90;;;;;;4993926;28;20372;-69
2020/12/20 03:23:01;;;;;;;10.23;5.38;;;6.00;99.90;;;;;;4979122;28;20027;-69
2020/12/20 03:25:28;;;;;;;13.13;7.00;;;6.00;99.90;;;;;;4978866;28;20026;-69
2020/12/20 03:27:56;;;;;;;9.98;6.38;;;6.10;99.90;;;;;;4979137;28;20023;-69
2020/12/20 03:30:23;;;;;;;9.40;5.78;;;6.10;99.90;;;;;;4978511;28;20033;-69
2020/12/20 03:32:51;;;;;;;9.85;6.50;;;6.10;99.90;;;;;;4993629;28;20029;-69
2020/12/20 03:35:19;;;;;;;13.10;7.45;;;6.10;99.90;;;;;;4977622;28;20031;-69
2020/12/20 03:37:55;;;;;;;10.32;6.60;;;6.10;99.90;;;;;;4978999;28;20031;-69
2020/12/20 03:40:24;;;;;;;11.20;6.22;;;6.20;99.90;;;;;;4978352;28;20022;-71
2020/12/20 03:42:51;;;;;;;9.43;5.68;;;6.20;99.90;;;;;;4978792;28;20148;-71
2020/12/20 03:45:19;;;;;;;10.52;5.85;;;6.20;99.90;;;;;;4993886;28;20027;-71
2020/12/20 03:47:48;;;;;;;8.70;6.30;;;6.20;99.90;;;;;;4978586;28;20030;-71
2020/12/20 03:50:16;;;;;;;11.70;5.75;;;6.10;99.90;;;;;;4978219;28;20018;-71
2020/12/20 03:52:44;;;;;;;10.50;6.47;;;6.10;99.90;;;;;;4978205;28;20022;-71
2020/12/20 03:55:11;;;;;;;11.13;6.75;;;6.10;99.90;;;;;;4978842;28;20169;-71
2020/12/20 03:57:39;;;;;;;11.15;6.03;;;6.10;99.90;;;;;;4978402;28;20105;-71
2020/12/20 04:00:07;;;;;;;11.00;6.35;;;6.10;99.90;;;;;;4977982;28;20110;-71
2020/12/20 04:02:35;;;;;;;11.55;6.80;;;6.10;99.90;;;;;;4993110;28;20026;-71
2020/12/20 04:05:03;;;;;;;11.85;6.43;;;6.10;99.90;;;;;;4976958;28;20067;-71
2020/12/20 04:07:31;;;;;;;19.80;8.13;;;6.10;99.90;;;;;;4978272;28;20023;-71
2020/12/20 04:09:58;;;;;;;29.10;12.20;;;6.10;99.90;;;;;;4977945;28;20073;-71
2020/12/20 04:12:26;;;;;;;21.40;10.60;;;6.10;99.90;;;;;;4977856;28;20327;-71
2020/12/20 04:14:54;;;;;;;24.27;11.00;;;6.00;99.90;;;;;;4977958;28;20030;-71
2020/12/20 04:17:21;;;;;;;19.92;9.15;;;6.00;99.90;;;;;;4978118;28;20369;-71
2020/12/20 04:19:49;;;;;;;11.18;6.30;;;5.90;99.90;;;;;;4978141;28;20339;-71
2020/12/20 04:22:17;;;;;;;10.57;6.00;;;5.90;99.90;;;;;;4978202;28;20106;-71
2020/12/20 04:24:45;;;;;;;11.85;6.43;;;5.90;99.90;;;;;;4977920;28;20458;-71
2020/12/20 04:27:12;;;;;;;14.68;8.25;;;5.80;99.90;;;;;;4978250;28;20399;-71
2020/12/20 04:29:40;;;;;;;20.02;8.95;;;5.70;99.90;;;;;;4977703;28;20042;-71
2020/12/20 04:32:08;;;;;;;17.77;9.98;;;5.70;99.90;;;;;;4977896;28;20045;-71
2020/12/20 04:34:39;;;;;;;18.42;8.77;;;5.60;99.90;;;;;;4977860;28;20097;-71
2020/12/20 04:37:07;;;;;;;17.10;9.77;;;5.60;99.90;;;;;;4977571;28;20077;-71
2020/12/20 04:39:35;;;;;;;17.52;8.48;;;5.50;99.90;;;;;;4992766;28;20022;-71
2020/12/20 04:42:02;;;;;;;12.90;7.13;;;5.50;99.90;;;;;;4977777;28;20023;-71
2020/12/20 04:44:30;;;;;;;10.52;6.72;;;5.50;99.90;;;;;;4977498;28;20098;-71
2020/12/20 04:46:59;;;;;;;13.50;7.38;;;5.50;99.90;;;;;;4978260;28;20088;-71
2020/12/20 04:49:32;;;;;;;14.85;6.82;;;5.60;99.90;;;;;;4977549;28;20138;-71
2020/12/20 04:52:00;;;;;;;13.65;7.45;;;5.60;99.90;;;;;;4978063;28;20023;-71
2020/12/20 04:54:30;;;;;;;13.25;7.20;;;5.70;99.90;;;;;;4977491;28;20026;-71
2020/12/20 04:56:58;;;;;;;13.95;6.90;;;5.70;99.90;;;;;;4992796;28;20054;-71
2020/12/20 04:59:26;;;;;;;20.23;7.97;;;5.70;99.90;;;;;;4992507;28;20113;-71
2020/12/20 05:01:54;;;;;;;11.57;6.45;;;5.70;99.90;;;;;;4977405;28;20029;-71
2020/12/20 05:04:22;;;;;;;9.90;6.47;;;5.80;99.90;;;;;;4975953;28;20132;-71
2020/12/20 05:06:49;;;;;;;14.73;6.75;;;5.80;99.90;;;;;;4977358;28;20037;-71
2020/12/20 05:09:17;;;;;;;11.45;6.72;;;5.80;99.90;;;;;;4977384;28;20023;-71
2020/12/20 05:11:45;;;;;;;10.90;6.80;;;5.80;99.90;;;;;;4980340;28;20327;-71
2020/12/20 05:14:14;;;;;;;12.40;7.03;;;5.90;99.90;;;;;;4981003;28;20109;-72
2020/12/20 05:16:42;;;;;;;12.20;6.82;;;5.90;99.90;;;;;;4981104;28;20081;-71
2020/12/20 05:19:16;;;;;;;10.63;6.35;;;5.90;99.90;;;;;;4996445;28;20364;-71
2020/12/20 05:21:45;;;;;;;11.25;6.97;;;5.90;99.90;;;;;;4996336;28;20035;-71
2020/12/20 05:24:27;;;;;;;13.35;6.80;;;5.90;99.90;;;;;;4980819;28;20110;-71
2020/12/20 05:26:55;;;;;;;13.63;7.13;;;6.00;99.90;;;;;;4980866;28;20038;-71
2020/12/20 05:29:28;;;;;;;13.98;7.22;;;6.00;99.90;;;;;;4980731;28;20053;-70
2020/12/20 05:31:56;;;;;;;11.00;6.22;;;6.00;99.90;;;;;;4981271;28;20022;-69
2020/12/20 05:34:24;;;;;;;11.90;6.43;;;6.10;99.90;;;;;;4980723;28;20027;-69
2020/12/20 05:36:51;;;;;;;13.65;6.75;;;6.10;99.90;;;;;;4980726;28;20435;-69
2020/12/20 05:39:20;;;;;;;11.63;7.40;;;6.20;99.90;;;;;;4981677;28;20035;-69
2020/12/20 05:41:48;;;;;;;11.43;6.38;;;6.20;99.90;;;;;;4980832;28;20038;-69
2020/12/20 05:44:26;;;;;;;11.20;6.55;;;6.20;99.90;;;;;;4995585;28;20059;-69
2020/12/20 05:46:53;;;;;;;11.05;6.78;;;6.30;99.90;;;;;;4981083;28;20435;-69
2020/12/20 05:49:22;;;;;;;12.93;6.70;;;6.20;99.90;;;;;;4980487;28;20059;-69
2020/12/20 05:52:07;;;;;;;12.27;7.15;;;6.20;99.90;;;;;;4981154;28;20487;-69
2020/12/20 05:54:39;;;;;;;12.13;6.53;;;6.30;99.90;;;;;;4980372;28;20034;-69
2020/12/20 05:57:22;;;;;;;13.23;8.35;;;6.30;99.90;;;;;;4980523;28;20046;-69
2020/12/20 05:59:53;;;;;;;12.93;7.65;;;6.30;99.90;;;;;;4980363;28;20038;-69
2020/12/20 06:02:21;;;;;;;16.42;7.80;;;6.30;99.90;;;;;;4980409;28;20331;-71
2020/12/20 06:04:50;;;;;;;12.20;7.03;;;6.30;99.90;;;;;;4995179;28;20078;-71
2020/12/20 06:07:26;;;;;;;13.25;7.25;;;6.30;99.90;;;;;;4980080;28;20027;-71
2020/12/20 06:09:59;;;;;;;14.57;8.02;;;6.30;99.90;;;;;;4980328;28;20023;-71
2020/12/20 06:12:28;;;;;;;14.07;6.93;;;6.30;99.90;;;;;;4980234;28;20027;-71
2020/12/20 06:14:58;;;;;;;14.75;7.95;;;6.30;99.90;;;;;;4980213;28;20042;-71
2020/12/20 06:17:29;;;;;;;15.60;8.18;;;6.30;99.90;;;;;;4980517;28;20070;-69
2020/12/20 06:20:01;;;;;;;12.45;7.45;;;6.30;99.90;;;;;;4979898;28;20023;-69
2020/12/20 06:22:35;;;;;;;10.68;6.88;;;6.20;99.90;;;;;;4979228;28;20106;-70
2020/12/20 06:25:07;;;;;;;12.48;6.95;;;6.20;99.90;;;;;;4979677;28;20027;-71
2020/12/20 06:27:35;;;;;;;14.95;7.55;;;6.20;99.90;;;;;;4980281;28;20034;-71
2020/12/20 06:30:07;;;;;;;11.50;7.65;;;6.20;99.90;;;;;;4994969;28;20027;-71
2020/12/20 06:32:55;;;;;;;14.43;8.20;;;6.20;99.90;;;;;;4994754;28;20026;-71
2020/12/20 06:35:30;;;;;;;16.35;8.35;;;6.20;99.90;;;;;;4979602;28;20031;-71
2020/12/20 06:37:59;;;;;;;16.50;8.77;;;6.20;99.90;;;;;;4979577;28;20034;-71
2020/12/20 06:40:32;;;;;;;15.32;7.68;;;6.20;99.90;;;;;;4979686;28;20154;-71
2020/12/20 06:43:00;;;;;;;15.02;8.48;;;6.20;99.90;;;;;;4979682;28;20368;-71
2020/12/20 06:45:30;;;;;;;19.63;10.05;;;6.20;99.90;;;;;;4979365;28;20033;-71
2020/12/20 06:48:04;;;;;;;15.70;7.93;;;6.20;99.90;;;;;;4979379;28;20022;-71
2020/12/20 06:50:49;;;;;;;14.18;7.55;;;6.30;99.90;;;;;;4979512;28;20367;-71
2020/12/20 06:53:18;;;;;;;15.88;9.50;;;6.30;99.90;;;;;;4979827;28;20019;-71
2020/12/20 06:55:46;;;;;;;14.40;7.95;;;6.30;99.90;;;;;;4979264;28;20026;-71
2020/12/20 06:58:19;;;;;;;13.13;8.05;;;6.30;99.90;;;;;;4979176;28;20038;-71
2020/12/20 07:00:54;;;;;;;13.52;7.75;;;6.30;99.90;;;;;;4979237;28;20427;-71
2020/12/20 07:03:25;;;;;;;14.05;7.93;;;6.30;99.90;;;;;;4979020;28;20027;-74
2020/12/20 07:05:56;;;;;;;13.50;7.13;;;6.30;99.90;;;;;;4978784;28;20055;-69
2020/12/20 07:08:25;;;;;;;17.90;8.40;;;6.30;99.90;;;;;;4979482;28;20019;-72
2020/12/20 07:10:56;;;;;;;15.52;8.68;;;6.30;99.90;;;;;;4979111;28;20019;-73
2020/12/20 07:13:38;;;;;;;16.05;9.18;;;6.30;99.90;;;;;;4979154;28;20030;-73
2020/12/20 07:16:16;;;;;;;15.48;8.93;;;6.30;99.90;;;;;;4978809;28;20061;-72
2020/12/20 07:18:53;;;;;;;17.08;10.27;;;6.30;99.90;;;;;;4978650;28;20045;-72
2020/12/20 07:21:24;;;;;;;14.48;9.27;;;6.20;99.90;;;;;;4979403;28;20089;-73
2020/12/20 07:23:53;;;;;;;15.15;9.30;;;6.20;99.90;;;;;;4978570;28;20031;-71
2020/12/20 07:26:21;;;;;;;17.67;10.05;;;6.30;99.90;;;;;;4978657;28;20077;-70
2020/12/20 07:28:49;;;;;;;16.02;9.27;;;6.30;99.90;;;;;;4977538;28;20030;-70
2020/12/20 07:31:21;;;;;;;17.05;10.10;;;6.20;99.90;;;;;;4978592;28;20031;-70
2020/12/20 07:33:50;;;;;;;15.05;9.43;;;6.20;99.90;;;;;;4978294;28;20034;-69
2020/12/20 07:36:20;;;;;;;15.07;8.45;;;6.20;99.90;;;;;;4977424;28;20027;-70
2020/12/20 07:38:48;;;;;;;22.00;11.23;;;6.20;99.90;;;;;;4979010;28;20037;-70
2020/12/20 07:41:16;;;;;;;17.48;9.95;;;6.20;99.90;;;;;;4993553;28;20027;-67
2020/12/20 07:43:47;;;;;;;17.08;9.23;;;6.20;99.90;;;;;;4978177;28;20035;-67
2020/12/20 07:46:16;;;;;;;18.15;10.02;;;6.20;99.90;;;;;;4977890;28;20077;-67
2020/12/20 07:48:43;;;;;;;17.27;9.77;;;6.20;99.90;;;;;;4978236;28;20023;-67
2020/12/20 07:51:21;;;;;;;18.23;10.13;;;6.20;99.90;;;;;;4978369;28;20099;-68
2020/12/20 07:54:14;;;;;;;17.83;11.15;;;6.20;99.90;;;;;;4978427;28;20033;-65
2020/12/20 07:56:47;;;;;;;16.17;9.45;;;6.20;99.90;;;;;;4978946;28;20078;-67
2020/12/20 07:59:17;;;;;;;23.50;12.70;;;6.20;99.90;;;;;;4978302;28;20031;-68
2020/12/20 08:01:46;;;;;;;16.52;9.68;;;6.30;99.90;;;;;;4978243;28;20331;-68
2020/12/20 08:04:18;;;;;;;15.85;9.95;;;6.30;99.90;;;;;;4977676;28;20434;-68
2020/12/20 08:06:52;;;;;;;17.42;9.55;;;6.30;99.90;;;;;;4978063;28;20065;-68
2020/12/20 08:09:21;;;;;;;17.52;10.38;;;6.30;99.90;;;;;;4977947;28;20097;-68
2020/12/20 08:11:49;;;;;;;16.23;9.70;;;6.30;99.90;;;;;;4978106;28;20420;-69
2020/12/20 08:14:18;;;;;;;13.98;9.43;;;6.30;99.90;;;;;;4978049;28;20035;-68
2020/12/20 08:16:48;;;;;;;15.98;9.68;;;6.30;99.90;;;;;;4993010;28;20106;-68
2020/12/20 08:19:21;;;;;;;21.27;11.40;;;6.30;99.90;;;;;;4978065;28;20027;-69
2020/12/20 08:22:07;;;;;;;19.40;9.23;;;6.30;99.90;;;;;;4977915;28;20034;-70
2020/12/20 08:24:48;;;;;;;27.27;10.57;;;6.30;99.90;;;;;;4977977;28;20026;-69
2020/12/20 08:27:27;;;;;;;15.48;9.35;;;6.30;99.90;;;;;;4977594;28;20031;-68
2020/12/20 08:29:57;;;;;;;13.73;8.63;;;6.30;99.90;;;;;;4992970;28;20031;-68
2020/12/20 08:32:37;;;;;;;22.08;13.10;;;6.40;99.90;;;;;;4977712;28;20019;-68
2020/12/20 08:35:20;;;;;;;16.52;9.10;;;6.40;99.90;;;;;;4978271;28;20030;-68
2020/12/20 08:37:53;;;;;;;13.43;8.02;;;6.40;99.90;;;;;;4977713;28;20081;-69
2020/12/20 08:40:21;;;;;;;16.63;8.68;;;6.50;99.90;;;;;;4977835;28;20031;-68
2020/12/20 08:42:51;;;;;;;15.35;8.75;;;6.50;99.90;;;;;;4977850;28;20023;-69
2020/12/20 08:45:21;;;;;;;15.77;8.93;;;6.50;99.90;;;;;;4978973;28;20042;-68
2020/12/20 08:47:49;;;;;;;14.55;7.80;;;6.60;99.90;;;;;;4996742;28;20431;-69
2020/12/20 08:50:25;;;;;;;14.68;8.60;;;6.60;99.90;;;;;;4981423;28;20031;-68
2020/12/20 08:53:06;;;;;;;;;;;6.70;99.90;;;;;;4981837;28;20031;-68
2020/12/20 08:55:34;;;;;;;14.25;8.70;;;6.60;99.90;;;;;;4981994;28;19906;-69
2020/12/20 08:58:06;;;;;;;14.68;7.80;;;6.70;99.90;;;;;;4981391;28;20030;-69
2020/12/20 09:00:35;;;;;;;18.13;8.00;;;6.70;99.90;;;;;;4996721;28;20026;-69
2020/12/20 09:03:05;;;;;;;14.65;8.40;;;6.70;99.90;;;;;;4981229;28;20027;-69
2020/12/20 09:05:35;;;;;;;13.27;8.00;;;6.80;99.90;;;;;;4981369;28;20046;-69
2020/12/20 09:08:05;;;;;;;14.95;9.10;;;6.80;99.90;;;;;;4981233;28;20031;-69
2020/12/20 09:10:35;;;;;;;15.95;8.10;;;6.80;99.90;;;;;;4981317;28;20034;-69
2020/12/20 09:13:05;;;;;;;14.95;8.05;;;6.80;99.90;;;;;;4981158;28;20086;-67
2020/12/20 09:15:35;;;;;;;14.55;9.05;;;6.80;99.90;;;;;;4982043;28;20109;-69
2020/12/20 09:18:16;;;;;;;15.15;8.95;;;6.90;99.90;;;;;;4981124;28;20030;-69
2020/12/20 09:20:46;;;;;;;13.88;7.30;;;6.90;99.90;;;;;;4981605;28;20034;-69
2020/12/20 09:23:24;;;;;;;15.13;7.93;;;6.90;99.90;;;;;;4980893;28;20445;-69
2020/12/20 09:26:03;;;;;;;13.43;7.97;;;7.00;99.90;;;;;;4981548;28;20154;-69
2020/12/20 09:28:33;;;;;;;13.23;7.65;;;7.00;99.90;;;;;;4981253;28;20388;-69
2020/12/20 09:31:01;;;;;;;13.65;8.35;;;7.10;99.90;;;;;;4980751;28;20364;-69
2020/12/20 09:33:39;;;;;;;14.07;8.25;;;7.00;99.90;;;;;;4980947;28;20449;-68
2020/12/20 09:36:11;;;;;;;14.27;8.13;;;7.10;99.90;;;;;;4980991;28;20055;-68
2020/12/20 09:38:42;;;;;;;17.50;8.05;;;7.10;99.90;;;;;;4981561;28;20042;-68
2020/12/20 09:41:14;;;;;;;12.45;8.25;;;7.20;99.90;;;;;;4981259;28;20391;-68
2020/12/20 09:43:43;;;;;;;12.48;7.82;;;7.10;99.90;;;;;;4980856;28;20030;-68
2020/12/20 09:46:20;;;;;;;14.25;8.15;;;7.20;99.90;;;;;;4980661;28;20420;-68
2020/12/20 09:48:49;;;;;;;14.80;8.77;;;7.20;99.90;;;;;;4980723;28;20030;-68
2020/12/20 09:51:18;;;;;;;15.13;8.40;;;7.20;99.90;;;;;;4980952;28;20054;-68
2020/12/20 09:53:50;;;;;;;12.07;7.40;;;7.20;99.90;;;;;;4980448;28;20423;-68
2020/12/20 09:56:18;;;;;;;14.32;8.35;;;7.20;99.90;;;;;;4980936;28;20031;-68
2020/12/20 09:58:48;;;;;;;15.00;8.75;;;7.20;99.90;;;;;;4980796;28;20030;-68
2020/12/20 10:01:20;;;;;;;13.90;7.50;;;7.20;99.90;;;;;;4980805;28;20487;-68
2020/12/20 10:03:48;;;;;;;14.27;9.30;;;7.20;99.90;;;;;;4980107;28;20108;-68
2020/12/20 10:06:16;;;;;;;13.45;8.70;;;7.30;99.90;;;;;;4979902;28;20047;-68
2020/12/20 10:08:44;;;;;;;33.92;14.13;;;7.30;99.90;;;;;;4995268;28;20085;-68
2020/12/20 10:11:17;;;;;;;15.90;8.52;;;7.30;99.90;;;;;;4995393;28;20027;-68
2020/12/20 10:13:44;;;;;;;31.00;12.15;;;7.30;99.90;;;;;;4980125;28;20031;-68
2020/12/20 10:16:18;;;;;;;28.88;12.77;;;7.40;99.90;;;;;;4980085;28;20434;-68
2020/12/20 10:18:46;;;;;;;13.70;8.15;;;7.40;99.90;;;;;;4979951;28;20334;-68
2020/12/20 10:21:15;;;;;;;22.85;11.40;;;7.40;99.90;;;;;;4979946;28;20100;-68
2020/12/20 10:23:43;;;;;;;21.08;9.48;;;7.40;99.90;;;;;;4979786;28;20428;-68
2020/12/20 10:26:12;;;;;;;16.63;9.20;;;7.40;99.90;;;;;;4980459;28;20030;-69
2020/12/20 10:28:40;;;;;;;15.23;8.98;;;7.40;99.90;;;;;;4979402;28;20023;-68
2020/12/20 10:31:07;;;;;;;15.15;7.95;;;7.40;99.90;;;;;;4979712;28;20434;-68
2020/12/20 10:33:37;;;;;;;13.38;8.43;;;7.50;99.90;;;;;;4994795;28;20023;-68
2020/12/20 10:36:05;;;;;;;12.73;7.45;;;7.50;99.90;;;;;;4979692;28;20030;-68
2020/12/20 10:38:32;;;;;;;13.68;8.07;;;7.50;99.90;;;;;;4979600;28;20027;-68
2020/12/20 10:41:00;;;;;;;11.95;7.18;;;7.50;99.90;;;;;;4979842;28;20408;-68
2020/12/20 10:43:28;;;;;;;14.25;9.20;;;7.50;99.90;;;;;;4979387;28;20057;-68
2020/12/20 10:45:56;;;;;;;14.40;8.05;;;7.40;99.90;;;;;;4979606;28;20331;-68
2020/12/20 10:48:24;;;;;;;13.55;8.13;;;7.40;99.90;;;;;;4994509;28;20023;-68
2020/12/20 10:50:51;;;;;;;12.35;8.35;;;7.50;99.90;;;;;;4979906;28;20383;-68
2020/12/20 10:53:19;;;;;;;13.70;7.97;;;7.50;99.90;;;;;;4979551;28;20027;-68
2020/12/20 10:55:47;;;;;;;14.75;8.07;;;7.50;99.90;;;;;;4979809;28;20027;-68
2020/12/20 10:58:14;;;;;;;12.25;7.30;;;7.60;99.90;;;;;;4979474;28;20325;-68
2020/12/20 11:00:42;;;;;;;16.35;9.43;;;7.60;99.90;;;;;;4979213;28;20027;-66
2020/12/20 11:03:10;;;;;;;14.43;7.63;;;7.70;99.90;;;;;;4979052;28;20106;-66
2020/12/20 11:05:37;;;;;;;13.35;8.07;;;7.80;99.90;;;;;;4979144;28;20347;-66
2020/12/20 11:08:05;;;;;;;24.10;11.13;;;7.80;99.90;;;;;;4979017;28;20314;-67
2020/12/20 11:10:33;;;;;;;22.48;10.60;;;7.90;99.90;;;;;;4994041;28;20030;-67
2020/12/20 11:13:01;;;;;;;12.93;7.03;;;8.00;99.90;;;;;;4978843;28;20118;-67
2020/12/20 11:15:29;;;;;;;11.10;7.55;;;8.10;99.90;;;;;;4978898;28;20026;-66
2020/12/20 11:17:57;;;;;;;15.88;10.50;;;8.20;99.90;;;;;;4978759;28;20366;-66
2020/12/20 11:20:25;;;;;;;12.82;8.07;;;8.30;99.90;;;;;;4978818;28;20027;-66
2020/12/20 11:22:54;;;;;;;11.85;6.78;;;8.40;99.90;;;;;;4979209;28;20080;-66
2020/12/20 11:25:22;;;;;;;14.38;8.18;;;8.40;99.90;;;;;;4978903;28;20030;-66
2020/12/20 11:27:49;;;;;;;13.30;7.80;;;8.50;99.90;;;;;;4978716;28;20022;-68
2020/12/20 11:30:16;;;;;;;14.40;7.32;;;8.50;99.90;;;;;;4993619;28;20442;-66
2020/12/20 11:32:44;;;;;;;11.82;6.93;;;8.50;99.90;;;;;;4979036;28;20034;-65
2020/12/20 11:35:14;;;;;;;10.95;7.10;;;8.50;99.90;;;;;;4977949;28;20327;-66
2020/12/20 11:37:43;;;;;;;11.85;7.55;;;8.50;99.90;;;;;;4979328;28;20023;-66
2020/12/20 11:40:11;;;;;;;12.10;7.30;;;8.40;99.90;;;;;;4978392;28;20019;-66
2020/12/20 11:42:39;;;;;;;10.88;6.65;;;8.40;99.90;;;;;;4978217;28;20023;-66
2020/12/20 11:45:06;;;;;;;14.57;7.32;;;8.30;99.90;;;;;;4978737;28;20351;-66
2020/12/20 11:47:39;;;;;;;13.35;7.72;;;8.30;99.90;;;;;;4977323;28;20086;-66
2020/12/20 11:50:08;;;;;;;22.40;10.95;;;8.30;99.90;;;;;;4977447;28;20102;-66
2020/12/20 11:52:37;;;;;;;14.75;7.93;;;8.30;99.90;;;;;;4978193;28;20106;-66
2020/12/20 11:55:05;;;;;;;12.68;7.45;;;8.30;99.90;;;;;;4978629;28;20049;-66
2020/12/20 11:57:35;;;;;;;11.88;7.18;;;8.30;99.90;;;;;;4993327;28;20054;-66
2020/12/20 12:00:04;;;;;;;15.18;7.70;;;8.30;99.90;;;;;;4978338;28;20059;-67
2020/12/20 12:02:32;;;;;;;9.95;6.43;;;8.30;99.90;;;;;;4978443;28;20027;-66
2020/12/20 12:05:00;;;;;;;13.13;7.07;;;8.50;99.90;;;;;;4977854;28;20351;-67
2020/12/20 12:07:29;;;;;;;10.98;7.25;;;8.50;99.90;;;;;;4978019;28;20018;-66
2020/12/20 12:09:56;;;;;;;11.77;7.30;;;8.60;99.90;;;;;;4978470;28;20054;-66
2020/12/20 12:12:27;;;;;;;14.98;7.90;;;8.60;99.90;;;;;;4977927;28;20023;-66
2020/12/20 12:14:55;;;;;;;14.48;8.18;;;8.60;99.90;;;;;;4978427;28;20023;-66
2020/12/20 12:17:23;;;;;;;12.70;7.57;;;8.70;99.90;;;;;;4992971;28;20034;-66
2020/12/20 12:19:52;;;;;;;13.25;7.80;;;8.70;99.90;;;;;;4977329;28;20019;-66
2020/12/20 12:22:20;;;;;;;15.15;7.93;;;8.70;99.90;;;;;;4978174;28;20335;-66
2020/12/20 12:24:47;;;;;;;14.57;8.07;;;8.60;99.90;;;;;;4978389;28;20019;-66
2020/12/20 12:27:15;;;;;;;11.60;7.30;;;8.60;99.90;;;;;;4978013;28;20419;-66
2020/12/20 12:29:43;;;;;;;12.20;6.97;;;8.60;99.90;;;;;;4977856;28;20082;-66
2020/12/20 12:32:11;;;;;;;11.10;6.25;;;8.70;99.90;;;;;;4977687;28;20106;-66
2020/12/20 12:34:38;;;;;;;13.50;6.93;;;8.60;99.90;;;;;;4977960;28;20034;-66
2020/12/20 12:37:06;;;;;;;11.05;7.70;;;8.60;99.90;;;;;;4977611;28;20371;-66
2020/12/20 12:39:33;;;;;;;14.07;6.88;;;8.60;99.90;;;;;;4976648;28;20462;-66
2020/12/20 12:42:05;;;;;;;11.05;7.50;;;8.60;99.90;;;;;;4978024;28;20053;-66
2020/12/20 12:44:33;;;;;;;10.40;6.53;;;8.60;99.90;;;;;;4977630;28;20424;-66
2020/12/20 12:47:01;;;;;;;11.57;6.68;;;8.60;99.90;;;;;;4976694;28;20050;-66
2020/12/20 12:49:29;;;;;;;10.82;6.25;;;8.50;99.90;;;;;;4978063;28;20102;-66
2020/12/20 12:51:58;;;;;;;15.25;9.90;;;8.50;99.90;;;;;;4977720;28;20095;-66
2020/12/20 12:54:26;;;;;;;13.68;7.30;;;8.50;99.90;;;;;;4977441;28;20031;-66
2020/12/20 12:56:53;;;;;;;12.43;7.22;;;8.40;99.90;;;;;;4977452;28;20308;-66
2020/12/20 12:59:21;;;;;;;12.35;7.35;;;8.40;99.90;;;;;;4977360;28;20031;-66
2020/12/20 13:01:48;;;;;;;11.35;7.18;;;8.30;99.90;;;;;;4992513;28;20427;-66